sensor_id;sensor_type;location;lat;lon;timestamp;temperature;humidity
698;DHT22;331;48.414;9.938;2023-03-14T00:01:08;11.20;99.90
698;DHT22;331;48.414;9.938;2023-03-14T00:03:42;11.20;99.90
698;DHT22;331;48.414;9.938;2023-03-14T00:06:14;11.20;99.90
698;DHT22;331;48.414;9.938;2023-03-14T00:08:46;11.20;99.90
698;DHT22;331;48.414;9.938;2023-03-14T00:11:17;11.20;99.90
698;DHT22;331;48.414;9.938;2023-03-14T00:13:46;11.20;99.90
698;DHT22;331;48.414;9.938;2023-03-14T00:16:17;11.10;99.90
698;DHT22;331;48.414;9.938;2023-03-14T00:18:49;11.10;99.90
698;DHT22;331;48.414;9.938;2023-03-14T00:21:23;11.10;99.90
698;DHT22;331;48.414;9.938;2023-03-14T00:23:54;11.10;99.90
698;DHT22;331;48.414;9.938;2023-03-14T00:26:25;11.00;99.90
698;DHT22;331;48.414;9.938;2023-03-14T00:28:52;11.00;99.90
698;DHT22;331;48.414;9.938;2023-03-14T00:31:20;11.00;99.90
698;DHT22;331;48.414;9.938;2023-03-14T00:33:53;10.90;99.90
698;DHT22;331;48.414;9.938;2023-03-14T00:38:53;10.90;99.90
698;DHT22;331;48.414;9.938;2023-03-14T00:41:23;10.90;99.90
698;DHT22;331;48.414;9.938;2023-03-14T00:43:50;10.80;99.90
698;DHT22;331;48.414;9.938;2023-03-14T00:46:19;10.80;99.90
698;DHT22;331;48.414;9.938;2023-03-14T00:48:46;10.80;99.90
698;DHT22;331;48.414;9.938;2023-03-14T00:51:16;10.80;99.90
698;DHT22;331;48.414;9.938;2023-03-14T00:53:43;10.70;99.90
698;DHT22;331;48.414;9.938;2023-03-14T00:56:12;10.70;99.90
698;DHT22;331;48.414;9.938;2023-03-14T00:58:39;10.70;99.90
698;DHT22;331;48.414;9.938;2023-03-14T01:01:06;10.70;99.90
698;DHT22;331;48.414;9.938;2023-03-14T01:03:34;10.70;99.90
698;DHT22;331;48.414;9.938;2023-03-14T01:06:08;10.70;99.90
698;DHT22;331;48.414;9.938;2023-03-14T01:08:35;10.60;99.90
698;DHT22;331;48.414;9.938;2023-03-14T01:11:04;10.60;99.90
698;DHT22;331;48.414;9.938;2023-03-14T01:13:33;10.60;99.90
698;DHT22;331;48.414;9.938;2023-03-14T01:16:02;10.50;99.90
698;DHT22;331;48.414;9.938;2023-03-14T01:18:29;10.50;99.90
698;DHT22;331;48.414;9.938;2023-03-14T01:20:56;10.50;99.90
698;DHT22;331;48.414;9.938;2023-03-14T01:23:32;10.50;99.90
698;DHT22;331;48.414;9.938;2023-03-14T01:26:01;10.50;99.90
698;DHT22;331;48.414;9.938;2023-03-14T01:28:28;10.40;99.90
698;DHT22;331;48.414;9.938;2023-03-14T01:30:57;10.40;99.90
698;DHT22;331;48.414;9.938;2023-03-14T01:33:28;10.40;99.90
698;DHT22;331;48.414;9.938;2023-03-14T01:35:55;10.40;99.90
698;DHT22;331;48.414;9.938;2023-03-14T01:38:22;10.40;99.90
698;DHT22;331;48.414;9.938;2023-03-14T01:40:53;10.40;99.90
698;DHT22;331;48.414;9.938;2023-03-14T01:43:20;10.30;99.90
698;DHT22;331;48.414;9.938;2023-03-14T01:46:14;10.30;99.90
698;DHT22;331;48.414;9.938;2023-03-14T01:48:43;10.30;99.90
698;DHT22;331;48.414;9.938;2023-03-14T01:51:12;10.30;99.90
698;DHT22;331;48.414;9.938;2023-03-14T01:53:39;10.30;99.90
698;DHT22;331;48.414;9.938;2023-03-14T01:56:10;10.30;99.90
698;DHT22;331;48.414;9.938;2023-03-14T01:58:40;10.20;99.90
698;DHT22;331;48.414;9.938;2023-03-14T02:01:08;10.20;99.90
698;DHT22;331;48.414;9.938;2023-03-14T02:03:38;10.20;99.90
698;DHT22;331;48.414;9.938;2023-03-14T02:06:08;10.20;99.90
698;DHT22;331;48.414;9.938;2023-03-14T02:08:38;10.10;99.90
698;DHT22;331;48.414;9.938;2023-03-14T02:11:12;10.10;99.90
698;DHT22;331;48.414;9.938;2023-03-14T02:13:53;10.10;99.90
698;DHT22;331;48.414;9.938;2023-03-14T02:16:53;10.10;99.90
698;DHT22;331;48.414;9.938;2023-03-14T02:19:50;10.10;99.90
698;DHT22;331;48.414;9.938;2023-03-14T02:22:42;10.00;99.90
698;DHT22;331;48.414;9.938;2023-03-14T02:25:14;10.00;99.90
698;DHT22;331;48.414;9.938;2023-03-14T02:27:46;10.00;99.90
698;DHT22;331;48.414;9.938;2023-03-14T02:30:14;10.00;99.90
698;DHT22;331;48.414;9.938;2023-03-14T02:32:45;10.00;99.90
698;DHT22;331;48.414;9.938;2023-03-14T02:35:19;10.00;99.90
698;DHT22;331;48.414;9.938;2023-03-14T02:37:52;9.90;99.90
698;DHT22;331;48.414;9.938;2023-03-14T02:40:20;9.90;99.90
698;DHT22;331;48.414;9.938;2023-03-14T02:42:51;9.90;99.90
698;DHT22;331;48.414;9.938;2023-03-14T02:45:39;9.90;99.90
698;DHT22;331;48.414;9.938;2023-03-14T02:48:08;9.80;99.90
698;DHT22;331;48.414;9.938;2023-03-14T02:50:41;9.80;99.90
698;DHT22;331;48.414;9.938;2023-03-14T02:55:36;9.80;99.90
698;DHT22;331;48.414;9.938;2023-03-14T03:00:58;9.80;99.90
698;DHT22;331;48.414;9.938;2023-03-14T03:03:25;9.70;99.90
698;DHT22;331;48.414;9.938;2023-03-14T03:05:54;9.70;99.90
698;DHT22;331;48.414;9.938;2023-03-14T03:08:22;9.70;99.90
698;DHT22;331;48.414;9.938;2023-03-14T03:10:53;9.70;99.90
698;DHT22;331;48.414;9.938;2023-03-14T03:13:23;9.70;99.90
698;DHT22;331;48.414;9.938;2023-03-14T03:15:55;9.70;99.90
698;DHT22;331;48.414;9.938;2023-03-14T03:18:24;9.70;99.90
698;DHT22;331;48.414;9.938;2023-03-14T03:20:51;9.60;99.90
698;DHT22;331;48.414;9.938;2023-03-14T03:23:18;9.60;99.90
698;DHT22;331;48.414;9.938;2023-03-14T03:25:47;9.60;99.90
698;DHT22;331;48.414;9.938;2023-03-14T03:28:14;9.60;99.90
698;DHT22;331;48.414;9.938;2023-03-14T03:30:41;9.60;99.90
698;DHT22;331;48.414;9.938;2023-03-14T03:33:09;9.60;99.90
698;DHT22;331;48.414;9.938;2023-03-14T03:35:42;9.60;99.90
698;DHT22;331;48.414;9.938;2023-03-14T03:38:10;9.60;99.90
698;DHT22;331;48.414;9.938;2023-03-14T03:40:37;9.60;99.90
698;DHT22;331;48.414;9.938;2023-03-14T03:43:06;9.60;99.90
698;DHT22;331;48.414;9.938;2023-03-14T03:45:36;9.60;99.90
698;DHT22;331;48.414;9.938;2023-03-14T03:48:04;9.50;99.90
698;DHT22;331;48.414;9.938;2023-03-14T03:50:31;9.50;99.90
698;DHT22;331;48.414;9.938;2023-03-14T03:53:00;9.60;99.90
698;DHT22;331;48.414;9.938;2023-03-14T03:55:27;9.50;99.90
698;DHT22;331;48.414;9.938;2023-03-14T03:57:54;9.50;99.90
698;DHT22;331;48.414;9.938;2023-03-14T04:00:21;9.50;99.90
698;DHT22;331;48.414;9.938;2023-03-14T04:02:48;9.50;99.90
698;DHT22;331;48.414;9.938;2023-03-14T04:05:16;9.50;99.90
698;DHT22;331;48.414;9.938;2023-03-14T04:07:52;9.40;99.90
698;DHT22;331;48.414;9.938;2023-03-14T04:10:25;9.40;99.90
698;DHT22;331;48.414;9.938;2023-03-14T04:13:05;9.40;99.90
698;DHT22;331;48.414;9.938;2023-03-14T04:15:33;9.40;99.90
698;DHT22;331;48.414;9.938;2023-03-14T04:18:07;9.40;99.90
698;DHT22;331;48.414;9.938;2023-03-14T04:20:34;9.40;99.90
698;DHT22;331;48.414;9.938;2023-03-14T04:23:02;9.40;99.90
698;DHT22;331;48.414;9.938;2023-03-14T04:25:31;9.40;99.90
698;DHT22;331;48.414;9.938;2023-03-14T04:28:01;9.40;99.90
698;DHT22;331;48.414;9.938;2023-03-14T04:30:30;9.30;99.90
698;DHT22;331;48.414;9.938;2023-03-14T04:33:10;9.30;99.90
698;DHT22;331;48.414;9.938;2023-03-14T04:35:45;9.30;99.90
698;DHT22;331;48.414;9.938;2023-03-14T04:38:14;9.30;99.90
698;DHT22;331;48.414;9.938;2023-03-14T04:40:45;9.30;99.90
698;DHT22;331;48.414;9.938;2023-03-14T04:43:13;9.30;99.90
698;DHT22;331;48.414;9.938;2023-03-14T04:45:47;9.30;99.90
698;DHT22;331;48.414;9.938;2023-03-14T04:48:14;9.30;99.90
698;DHT22;331;48.414;9.938;2023-03-14T04:50:45;9.20;99.90
698;DHT22;331;48.414;9.938;2023-03-14T04:53:12;9.20;99.90
698;DHT22;331;48.414;9.938;2023-03-14T04:55:48;9.20;99.90
698;DHT22;331;48.414;9.938;2023-03-14T04:58:16;9.20;99.90
698;DHT22;331;48.414;9.938;2023-03-14T05:00:44;9.10;99.90
698;DHT22;331;48.414;9.938;2023-03-14T05:03:31;9.20;99.90
698;DHT22;331;48.414;9.938;2023-03-14T05:06:33;9.20;99.90
698;DHT22;331;48.414;9.938;2023-03-14T05:09:00;9.10;99.90
698;DHT22;331;48.414;9.938;2023-03-14T05:11:47;9.10;99.90
698;DHT22;331;48.414;9.938;2023-03-14T05:14:30;9.10;99.90
698;DHT22;331;48.414;9.938;2023-03-14T05:17:17;9.10;99.90
698;DHT22;331;48.414;9.938;2023-03-14T05:20:04;9.10;99.90
698;DHT22;331;48.414;9.938;2023-03-14T05:22:52;9.00;99.90
698;DHT22;331;48.414;9.938;2023-03-14T05:25:38;9.00;99.90
698;DHT22;331;48.414;9.938;2023-03-14T05:28:33;9.00;99.90
698;DHT22;331;48.414;9.938;2023-03-14T05:31:29;9.00;99.90
698;DHT22;331;48.414;9.938;2023-03-14T05:34:23;9.00;99.90
698;DHT22;331;48.414;9.938;2023-03-14T05:37:02;9.00;99.90
698;DHT22;331;48.414;9.938;2023-03-14T05:39:40;9.00;99.90
698;DHT22;331;48.414;9.938;2023-03-14T05:42:30;9.00;99.90
698;DHT22;331;48.414;9.938;2023-03-14T05:45:31;8.90;99.90
698;DHT22;331;48.414;9.938;2023-03-14T05:48:12;8.90;99.90
698;DHT22;331;48.414;9.938;2023-03-14T05:50:47;8.90;99.90
698;DHT22;331;48.414;9.938;2023-03-14T05:53:27;8.90;99.90
698;DHT22;331;48.414;9.938;2023-03-14T05:56:32;8.90;99.90
698;DHT22;331;48.414;9.938;2023-03-14T05:59:15;8.90;99.90
698;DHT22;331;48.414;9.938;2023-03-14T06:01:59;8.80;99.90
698;DHT22;331;48.414;9.938;2023-03-14T06:04:29;8.80;99.90
698;DHT22;331;48.414;9.938;2023-03-14T06:06:59;8.80;99.90
698;DHT22;331;48.414;9.938;2023-03-14T06:09:26;8.80;99.90
698;DHT22;331;48.414;9.938;2023-03-14T06:11:56;8.80;99.90
698;DHT22;331;48.414;9.938;2023-03-14T06:14:23;8.80;99.90
698;DHT22;331;48.414;9.938;2023-03-14T06:16:54;8.80;99.90
698;DHT22;331;48.414;9.938;2023-03-14T06:19:25;8.80;99.90
698;DHT22;331;48.414;9.938;2023-03-14T06:21:51;8.80;99.90
698;DHT22;331;48.414;9.938;2023-03-14T06:24:19;8.80;99.90
698;DHT22;331;48.414;9.938;2023-03-14T06:26:49;8.80;99.90
698;DHT22;331;48.414;9.938;2023-03-14T06:29:16;8.70;99.90
698;DHT22;331;48.414;9.938;2023-03-14T06:31:44;8.70;99.90
698;DHT22;331;48.414;9.938;2023-03-14T06:34:14;8.70;99.90
698;DHT22;331;48.414;9.938;2023-03-14T06:36:44;8.70;99.90
698;DHT22;331;48.414;9.938;2023-03-14T06:39:11;8.70;99.90
698;DHT22;331;48.414;9.938;2023-03-14T06:41:42;8.60;99.90
698;DHT22;331;48.414;9.938;2023-03-14T06:44:10;8.70;99.90
698;DHT22;331;48.414;9.938;2023-03-14T06:46:37;8.70;99.90
698;DHT22;331;48.414;9.938;2023-03-14T06:49:04;8.70;99.90
698;DHT22;331;48.414;9.938;2023-03-14T06:51:32;8.70;99.90
698;DHT22;331;48.414;9.938;2023-03-14T06:54:03;8.60;99.90
698;DHT22;331;48.414;9.938;2023-03-14T06:56:31;8.60;99.90
698;DHT22;331;48.414;9.938;2023-03-14T06:59:00;8.60;99.90
698;DHT22;331;48.414;9.938;2023-03-14T07:01:33;8.60;99.90
698;DHT22;331;48.414;9.938;2023-03-14T07:04:06;8.60;99.90
698;DHT22;331;48.414;9.938;2023-03-14T07:06:35;8.60;99.90
698;DHT22;331;48.414;9.938;2023-03-14T07:09:05;8.60;99.90
698;DHT22;331;48.414;9.938;2023-03-14T07:11:36;8.60;99.90
698;DHT22;331;48.414;9.938;2023-03-14T07:14:03;8.60;99.90
698;DHT22;331;48.414;9.938;2023-03-14T07:16:30;8.60;99.90
698;DHT22;331;48.414;9.938;2023-03-14T07:18:58;8.60;99.90
698;DHT22;331;48.414;9.938;2023-03-14T07:21:26;8.60;99.90
698;DHT22;331;48.414;9.938;2023-03-14T07:23:52;8.60;99.90
698;DHT22;331;48.414;9.938;2023-03-14T07:26:21;8.60;99.90
698;DHT22;331;48.414;9.938;2023-03-14T07:28:51;8.50;99.90
698;DHT22;331;48.414;9.938;2023-03-14T07:31:19;8.50;99.90
698;DHT22;331;48.414;9.938;2023-03-14T07:33:46;8.50;99.90
698;DHT22;331;48.414;9.938;2023-03-14T07:36:13;8.50;99.90
698;DHT22;331;48.414;9.938;2023-03-14T07:38:43;8.50;99.90
698;DHT22;331;48.414;9.938;2023-03-14T07:41:32;8.50;99.90
698;DHT22;331;48.414;9.938;2023-03-14T07:44:35;8.50;99.90
698;DHT22;331;48.414;9.938;2023-03-14T07:47:02;8.50;99.90
698;DHT22;331;48.414;9.938;2023-03-14T07:49:29;8.50;99.90
698;DHT22;331;48.414;9.938;2023-03-14T07:51:56;8.50;99.90
698;DHT22;331;48.414;9.938;2023-03-14T07:54:23;8.50;99.90
698;DHT22;331;48.414;9.938;2023-03-14T07:56:51;8.50;99.90
698;DHT22;331;48.414;9.938;2023-03-14T07:59:18;8.50;99.90
698;DHT22;331;48.414;9.938;2023-03-14T08:01:45;8.50;99.90
698;DHT22;331;48.414;9.938;2023-03-14T08:04:13;8.50;99.90
698;DHT22;331;48.414;9.938;2023-03-14T08:06:39;8.40;99.90
698;DHT22;331;48.414;9.938;2023-03-14T08:09:06;8.50;99.90
698;DHT22;331;48.414;9.938;2023-03-14T08:11:33;8.50;99.90
698;DHT22;331;48.414;9.938;2023-03-14T08:14:05;8.50;99.90
698;DHT22;331;48.414;9.938;2023-03-14T08:16:31;8.50;99.90
698;DHT22;331;48.414;9.938;2023-03-14T08:18:58;8.50;99.90
698;DHT22;331;48.414;9.938;2023-03-14T08:21:25;8.50;99.90
698;DHT22;331;48.414;9.938;2023-03-14T08:23:52;8.50;99.90
698;DHT22;331;48.414;9.938;2023-03-14T08:26:19;8.40;99.90
698;DHT22;331;48.414;9.938;2023-03-14T08:28:46;8.50;99.90
698;DHT22;331;48.414;9.938;2023-03-14T08:31:14;8.50;99.90
698;DHT22;331;48.414;9.938;2023-03-14T08:33:41;8.50;99.90
698;DHT22;331;48.414;9.938;2023-03-14T08:36:08;8.50;99.90
698;DHT22;331;48.414;9.938;2023-03-14T08:38:35;8.50;99.90
698;DHT22;331;48.414;9.938;2023-03-14T08:41:05;8.50;99.90
698;DHT22;331;48.414;9.938;2023-03-14T08:43:32;8.50;99.90
698;DHT22;331;48.414;9.938;2023-03-14T08:46:00;8.50;99.90
698;DHT22;331;48.414;9.938;2023-03-14T08:48:29;8.50;99.90
698;DHT22;331;48.414;9.938;2023-03-14T08:50:55;8.50;99.90
698;DHT22;331;48.414;9.938;2023-03-14T08:53:22;8.50;99.90
698;DHT22;331;48.414;9.938;2023-03-14T08:55:52;8.50;99.90
698;DHT22;331;48.414;9.938;2023-03-14T08:58:18;8.50;99.90
698;DHT22;331;48.414;9.938;2023-03-14T09:00:45;8.50;99.90
698;DHT22;331;48.414;9.938;2023-03-14T09:03:12;8.50;99.90
698;DHT22;331;48.414;9.938;2023-03-14T09:05:41;8.50;99.90
698;DHT22;331;48.414;9.938;2023-03-14T09:08:08;8.60;99.90
698;DHT22;331;48.414;9.938;2023-03-14T09:10:34;8.60;99.90
698;DHT22;331;48.414;9.938;2023-03-14T09:13:01;8.60;99.90
698;DHT22;331;48.414;9.938;2023-03-14T09:15:28;8.60;99.90
698;DHT22;331;48.414;9.938;2023-03-14T09:17:55;8.70;99.90
698;DHT22;331;48.414;9.938;2023-03-14T09:20:22;8.70;99.90
698;DHT22;331;48.414;9.938;2023-03-14T09:22:50;8.70;99.90
698;DHT22;331;48.414;9.938;2023-03-14T09:25:17;8.70;99.90
698;DHT22;331;48.414;9.938;2023-03-14T09:27:44;8.70;99.90
698;DHT22;331;48.414;9.938;2023-03-14T09:30:11;8.80;99.90
698;DHT22;331;48.414;9.938;2023-03-14T09:32:38;8.70;99.90
698;DHT22;331;48.414;9.938;2023-03-14T09:35:05;8.80;99.90
698;DHT22;331;48.414;9.938;2023-03-14T09:37:32;8.80;99.90
698;DHT22;331;48.414;9.938;2023-03-14T09:40:00;8.80;99.90
698;DHT22;331;48.414;9.938;2023-03-14T09:42:33;8.80;99.90
698;DHT22;331;48.414;9.938;2023-03-14T09:45:04;8.90;99.90
698;DHT22;331;48.414;9.938;2023-03-14T09:47:32;8.90;99.90
698;DHT22;331;48.414;9.938;2023-03-14T09:49:59;8.90;99.90
698;DHT22;331;48.414;9.938;2023-03-14T09:52:28;8.90;99.90
698;DHT22;331;48.414;9.938;2023-03-14T09:54:56;8.90;99.90
698;DHT22;331;48.414;9.938;2023-03-14T09:57:27;8.90;99.90
698;DHT22;331;48.414;9.938;2023-03-14T09:59:54;9.00;99.90
698;DHT22;331;48.414;9.938;2023-03-14T10:02:22;8.90;99.90
698;DHT22;331;48.414;9.938;2023-03-14T10:04:50;9.00;99.90
698;DHT22;331;48.414;9.938;2023-03-14T10:07:18;9.00;99.90
698;DHT22;331;48.414;9.938;2023-03-14T10:09:47;9.00;99.90
698;DHT22;331;48.414;9.938;2023-03-14T10:12:15;9.00;99.90
698;DHT22;331;48.414;9.938;2023-03-14T10:14:47;9.00;99.90
698;DHT22;331;48.414;9.938;2023-03-14T10:17:16;9.10;99.90
698;DHT22;331;48.414;9.938;2023-03-14T10:19:53;9.10;99.90
698;DHT22;331;48.414;9.938;2023-03-14T10:22:20;9.10;99.90
698;DHT22;331;48.414;9.938;2023-03-14T10:24:50;9.10;99.90
698;DHT22;331;48.414;9.938;2023-03-14T10:27:20;9.10;99.90
698;DHT22;331;48.414;9.938;2023-03-14T10:29:53;9.20;99.90
698;DHT22;331;48.414;9.938;2023-03-14T10:32:20;9.20;99.90
698;DHT22;331;48.414;9.938;2023-03-14T10:35:03;9.20;99.90
698;DHT22;331;48.414;9.938;2023-03-14T10:37:30;9.30;99.90
698;DHT22;331;48.414;9.938;2023-03-14T10:39:58;9.30;99.90
698;DHT22;331;48.414;9.938;2023-03-14T10:42:30;9.30;99.90
698;DHT22;331;48.414;9.938;2023-03-14T10:45:01;9.30;99.90
698;DHT22;331;48.414;9.938;2023-03-14T10:47:28;9.40;99.90
698;DHT22;331;48.414;9.938;2023-03-14T10:49:56;9.40;99.90
698;DHT22;331;48.414;9.938;2023-03-14T10:52:23;9.40;99.90
698;DHT22;331;48.414;9.938;2023-03-14T10:54:53;9.40;99.90
698;DHT22;331;48.414;9.938;2023-03-14T10:57:21;9.50;99.90
698;DHT22;331;48.414;9.938;2023-03-14T10:59:48;9.50;99.90
698;DHT22;331;48.414;9.938;2023-03-14T11:02:22;9.50;99.90
698;DHT22;331;48.414;9.938;2023-03-14T11:04:56;9.50;99.90
698;DHT22;331;48.414;9.938;2023-03-14T11:07:31;9.50;99.90
698;DHT22;331;48.414;9.938;2023-03-14T11:09:58;9.50;99.90
698;DHT22;331;48.414;9.938;2023-03-14T11:12:34;9.60;99.90
698;DHT22;331;48.414;9.938;2023-03-14T11:15:04;9.60;99.90
698;DHT22;331;48.414;9.938;2023-03-14T11:17:37;9.60;99.90
698;DHT22;331;48.414;9.938;2023-03-14T11:20:12;9.60;99.90
698;DHT22;331;48.414;9.938;2023-03-14T11:22:45;9.70;99.90
698;DHT22;331;48.414;9.938;2023-03-14T11:25:16;9.70;99.90
698;DHT22;331;48.414;9.938;2023-03-14T11:27:45;9.70;99.90
698;DHT22;331;48.414;9.938;2023-03-14T11:30:17;9.70;99.90
698;DHT22;331;48.414;9.938;2023-03-14T11:32:46;9.70;99.90
698;DHT22;331;48.414;9.938;2023-03-14T11:35:17;9.70;99.90
698;DHT22;331;48.414;9.938;2023-03-14T11:37:46;9.80;99.90
698;DHT22;331;48.414;9.938;2023-03-14T11:40:16;9.80;99.90
698;DHT22;331;48.414;9.938;2023-03-14T11:42:46;9.80;99.90
698;DHT22;331;48.414;9.938;2023-03-14T11:45:15;9.80;99.90
698;DHT22;331;48.414;9.938;2023-03-14T11:47:43;9.80;99.90
698;DHT22;331;48.414;9.938;2023-03-14T11:50:14;9.80;99.90
698;DHT22;331;48.414;9.938;2023-03-14T11:52:44;9.80;99.90
698;DHT22;331;48.414;9.938;2023-03-14T11:55:15;9.90;99.90
698;DHT22;331;48.414;9.938;2023-03-14T11:57:43;9.90;99.90
698;DHT22;331;48.414;9.938;2023-03-14T12:00:13;9.90;99.90
698;DHT22;331;48.414;9.938;2023-03-14T12:02:44;9.80;99.90
698;DHT22;331;48.414;9.938;2023-03-14T12:05:34;9.80;99.90
698;DHT22;331;48.414;9.938;2023-03-14T12:10:46;9.90;99.90
698;DHT22;331;48.414;9.938;2023-03-14T12:13:15;9.90;99.90
698;DHT22;331;48.414;9.938;2023-03-14T12:15:46;9.80;99.90
698;DHT22;331;48.414;9.938;2023-03-14T12:18:17;9.90;99.90
698;DHT22;331;48.414;9.938;2023-03-14T12:20:51;9.90;99.90
698;DHT22;331;48.414;9.938;2023-03-14T12:23:20;9.90;99.90
698;DHT22;331;48.414;9.938;2023-03-14T12:25:47;9.80;99.90
698;DHT22;331;48.414;9.938;2023-03-14T12:28:18;9.80;99.90
698;DHT22;331;48.414;9.938;2023-03-14T12:30:45;9.80;99.90
698;DHT22;331;48.414;9.938;2023-03-14T12:36:04;9.80;99.90
698;DHT22;331;48.414;9.938;2023-03-14T12:38:43;9.80;99.90
698;DHT22;331;48.414;9.938;2023-03-14T12:41:13;9.80;99.90
698;DHT22;331;48.414;9.938;2023-03-14T12:43:41;9.80;99.90
698;DHT22;331;48.414;9.938;2023-03-14T12:46:19;9.80;99.90
698;DHT22;331;48.414;9.938;2023-03-14T12:48:47;9.70;99.90
698;DHT22;331;48.414;9.938;2023-03-14T12:51:16;9.70;99.90
698;DHT22;331;48.414;9.938;2023-03-14T12:53:53;9.70;99.90
698;DHT22;331;48.414;9.938;2023-03-14T12:56:34;9.70;99.90
698;DHT22;331;48.414;9.938;2023-03-14T12:59:09;9.70;99.90
698;DHT22;331;48.414;9.938;2023-03-14T13:01:45;9.70;99.90
698;DHT22;331;48.414;9.938;2023-03-14T13:04:12;9.70;99.90
698;DHT22;331;48.414;9.938;2023-03-14T13:06:51;9.60;99.90
698;DHT22;331;48.414;9.938;2023-03-14T13:12:08;9.60;99.90
698;DHT22;331;48.414;9.938;2023-03-14T13:14:36;9.60;99.90
698;DHT22;331;48.414;9.938;2023-03-14T13:17:04;9.60;99.90
698;DHT22;331;48.414;9.938;2023-03-14T13:19:31;9.60;99.90
698;DHT22;331;48.414;9.938;2023-03-14T13:22:02;9.60;99.90
698;DHT22;331;48.414;9.938;2023-03-14T13:24:32;9.60;99.90
698;DHT22;331;48.414;9.938;2023-03-14T13:27:00;9.60;99.90
698;DHT22;331;48.414;9.938;2023-03-14T13:29:27;9.50;99.90
698;DHT22;331;48.414;9.938;2023-03-14T13:31:57;9.50;99.90
698;DHT22;331;48.414;9.938;2023-03-14T13:34:24;9.50;99.90
698;DHT22;331;48.414;9.938;2023-03-14T13:36:51;9.40;99.90
698;DHT22;331;48.414;9.938;2023-03-14T13:39:20;9.40;99.90
698;DHT22;331;48.414;9.938;2023-03-14T13:41:50;9.40;99.90
698;DHT22;331;48.414;9.938;2023-03-14T13:44:17;9.30;99.90
698;DHT22;331;48.414;9.938;2023-03-14T13:46:44;9.30;99.90
698;DHT22;331;48.414;9.938;2023-03-14T13:49:13;9.30;99.90
698;DHT22;331;48.414;9.938;2023-03-14T13:51:44;9.30;99.90
698;DHT22;331;48.414;9.938;2023-03-14T13:54:14;9.20;99.90
698;DHT22;331;48.414;9.938;2023-03-14T13:56:43;9.20;99.90
698;DHT22;331;48.414;9.938;2023-03-14T13:59:20;9.20;99.90
698;DHT22;331;48.414;9.938;2023-03-14T14:01:47;9.20;99.90
698;DHT22;331;48.414;9.938;2023-03-14T14:04:15;9.20;99.90
698;DHT22;331;48.414;9.938;2023-03-14T14:06:44;9.20;99.90
698;DHT22;331;48.414;9.938;2023-03-14T14:09:13;9.20;99.90
698;DHT22;331;48.414;9.938;2023-03-14T14:11:43;9.20;99.90
698;DHT22;331;48.414;9.938;2023-03-14T14:14:11;9.10;99.90
698;DHT22;331;48.414;9.938;2023-03-14T14:16:40;9.10;99.90
698;DHT22;331;48.414;9.938;2023-03-14T14:19:08;9.10;99.90
698;DHT22;331;48.414;9.938;2023-03-14T14:21:35;9.00;99.90
698;DHT22;331;48.414;9.938;2023-03-14T14:24:02;9.00;99.90
698;DHT22;331;48.414;9.938;2023-03-14T14:26:30;9.00;99.90
698;DHT22;331;48.414;9.938;2023-03-14T14:29:00;9.00;99.90
698;DHT22;331;48.414;9.938;2023-03-14T14:31:27;8.90;99.90
698;DHT22;331;48.414;9.938;2023-03-14T14:33:55;8.90;99.90
698;DHT22;331;48.414;9.938;2023-03-14T14:36:23;8.90;99.90
698;DHT22;331;48.414;9.938;2023-03-14T14:38:51;8.90;99.90
698;DHT22;331;48.414;9.938;2023-03-14T14:41:18;8.80;99.90
698;DHT22;331;48.414;9.938;2023-03-14T14:43:45;8.80;99.90
698;DHT22;331;48.414;9.938;2023-03-14T14:46:15;8.80;99.90
698;DHT22;331;48.414;9.938;2023-03-14T14:48:43;8.80;99.90
698;DHT22;331;48.414;9.938;2023-03-14T14:51:10;8.70;99.90
698;DHT22;331;48.414;9.938;2023-03-14T14:53:38;8.70;99.90
698;DHT22;331;48.414;9.938;2023-03-14T14:56:07;8.70;99.90
698;DHT22;331;48.414;9.938;2023-03-14T14:58:34;8.60;99.90
698;DHT22;331;48.414;9.938;2023-03-14T15:01:05;8.70;99.90
698;DHT22;331;48.414;9.938;2023-03-14T15:03:49;8.60;99.90
698;DHT22;331;48.414;9.938;2023-03-14T15:06:48;8.60;99.90
698;DHT22;331;48.414;9.938;2023-03-14T15:09:22;8.60;99.90
698;DHT22;331;48.414;9.938;2023-03-14T15:12:11;8.60;99.90
698;DHT22;331;48.414;9.938;2023-03-14T15:15:01;8.50;99.90
698;DHT22;331;48.414;9.938;2023-03-14T15:18:00;8.50;99.90
698;DHT22;331;48.414;9.938;2023-03-14T15:24:08;8.50;99.90
698;DHT22;331;48.414;9.938;2023-03-14T15:29:45;8.40;99.90
698;DHT22;331;48.414;9.938;2023-03-14T15:32:50;8.40;99.90
698;DHT22;331;48.414;9.938;2023-03-14T15:35:55;8.40;99.90
698;DHT22;331;48.414;9.938;2023-03-14T15:38:35;8.40;99.90
698;DHT22;331;48.414;9.938;2023-03-14T15:44:31;8.30;99.90
698;DHT22;331;48.414;9.938;2023-03-14T15:47:13;8.30;99.90
698;DHT22;331;48.414;9.938;2023-03-14T15:50:09;8.30;99.90
698;DHT22;331;48.414;9.938;2023-03-14T15:52:46;8.30;99.90
698;DHT22;331;48.414;9.938;2023-03-14T15:55:16;8.30;99.90
698;DHT22;331;48.414;9.938;2023-03-14T15:58:23;8.30;99.90
698;DHT22;331;48.414;9.938;2023-03-14T16:00:56;8.20;99.90
698;DHT22;331;48.414;9.938;2023-03-14T16:03:42;8.20;99.90
698;DHT22;331;48.414;9.938;2023-03-14T16:06:16;8.20;99.90
698;DHT22;331;48.414;9.938;2023-03-14T16:08:47;8.20;99.90
698;DHT22;331;48.414;9.938;2023-03-14T16:11:17;8.20;99.90
698;DHT22;331;48.414;9.938;2023-03-14T16:13:53;8.10;99.90
698;DHT22;331;48.414;9.938;2023-03-14T16:19:23;8.10;99.90
698;DHT22;331;48.414;9.938;2023-03-14T16:21:54;8.10;99.90
698;DHT22;331;48.414;9.938;2023-03-14T16:24:30;8.10;99.90
698;DHT22;331;48.414;9.938;2023-03-14T16:26:57;8.10;99.90
698;DHT22;331;48.414;9.938;2023-03-14T16:29:30;8.10;99.90
698;DHT22;331;48.414;9.938;2023-03-14T16:32:05;8.10;99.90
698;DHT22;331;48.414;9.938;2023-03-14T16:34:37;8.00;99.90
698;DHT22;331;48.414;9.938;2023-03-14T16:37:24;8.00;99.90
698;DHT22;331;48.414;9.938;2023-03-14T16:39:58;8.00;99.90
698;DHT22;331;48.414;9.938;2023-03-14T16:42:33;8.00;99.90
698;DHT22;331;48.414;9.938;2023-03-14T16:45:05;8.00;99.90
698;DHT22;331;48.414;9.938;2023-03-14T16:47:33;7.90;99.90
698;DHT22;331;48.414;9.938;2023-03-14T16:50:03;7.90;99.90
698;DHT22;331;48.414;9.938;2023-03-14T16:52:36;7.90;99.90
698;DHT22;331;48.414;9.938;2023-03-14T16:55:04;7.90;99.90
698;DHT22;331;48.414;9.938;2023-03-14T16:57:32;7.90;99.90
698;DHT22;331;48.414;9.938;2023-03-14T16:59:59;7.90;99.90
698;DHT22;331;48.414;9.938;2023-03-14T17:02:27;7.80;99.90
698;DHT22;331;48.414;9.938;2023-03-14T17:04:56;7.80;99.90
698;DHT22;331;48.414;9.938;2023-03-14T17:07:22;7.80;99.90
698;DHT22;331;48.414;9.938;2023-03-14T17:09:49;7.80;99.90
698;DHT22;331;48.414;9.938;2023-03-14T17:12:18;7.80;99.90
698;DHT22;331;48.414;9.938;2023-03-14T17:14:45;7.80;99.90
698;DHT22;331;48.414;9.938;2023-03-14T17:17:12;7.80;99.90
698;DHT22;331;48.414;9.938;2023-03-14T17:19:40;7.70;99.90
698;DHT22;331;48.414;9.938;2023-03-14T17:22:09;7.70;99.90
698;DHT22;331;48.414;9.938;2023-03-14T17:24:37;7.70;99.90
698;DHT22;331;48.414;9.938;2023-03-14T17:27:07;7.70;99.90
698;DHT22;331;48.414;9.938;2023-03-14T17:29:35;7.70;99.90
698;DHT22;331;48.414;9.938;2023-03-14T17:32:14;7.70;99.90
698;DHT22;331;48.414;9.938;2023-03-14T17:37:52;7.60;99.90
698;DHT22;331;48.414;9.938;2023-03-14T17:40:21;7.60;99.90
698;DHT22;331;48.414;9.938;2023-03-14T17:43:01;7.60;99.90
698;DHT22;331;48.414;9.938;2023-03-14T17:45:29;7.60;99.90
698;DHT22;331;48.414;9.938;2023-03-14T17:48:00;7.60;99.90
698;DHT22;331;48.414;9.938;2023-03-14T17:50:31;7.60;99.90